sensor_id;sensor_type;location;lat;lon;timestamp;pressure;altitude;pressure_sealevel;temperature;humidity
25722;BME280;13578;53.450;15.496;2023-12-22T00:01:01;95949.16;;;2.90;100.00
25722;BME280;13578;53.450;15.496;2023-12-22T00:04:01;95945.78;;;2.88;100.00
25722;BME280;13578;53.450;15.496;2023-12-22T00:07:02;95936.16;;;2.85;100.00
25722;BME280;13578;53.450;15.496;2023-12-22T00:10:03;95952.03;;;2.88;100.00
25722;BME280;13578;53.450;15.496;2023-12-22T00:13:04;95940.19;;;2.89;100.00
25722;BME280;13578;53.450;15.496;2023-12-22T00:16:05;95952.06;;;3.03;100.00
25722;BME280;13578;53.450;15.496;2023-12-22T00:19:05;95977.56;;;3.09;100.00
25722;BME280;13578;53.450;15.496;2023-12-22T00:22:06;95963.38;;;3.07;100.00
25722;BME280;13578;53.450;15.496;2023-12-22T00:37:41;96017.41;;;2.85;100.00
25722;BME280;13578;53.450;15.496;2023-12-22T00:40:42;95995.13;;;2.75;100.00
25722;BME280;13578;53.450;15.496;2023-12-22T00:43:43;96010.06;;;2.70;100.00
25722;BME280;13578;53.450;15.496;2023-12-22T00:46:43;95995.41;;;2.80;100.00
25722;BME280;13578;53.450;15.496;2023-12-22T00:49:44;96004.50;;;2.87;100.00
25722;BME280;13578;53.450;15.496;2023-12-22T00:52:44;96015.25;;;2.95;100.00
25722;BME280;13578;53.450;15.496;2023-12-22T00:55:45;96011.00;;;3.01;100.00
25722;BME280;13578;53.450;15.496;2023-12-22T00:58:46;95993.06;;;3.00;100.00
25722;BME280;13578;53.450;15.496;2023-12-22T01:01:46;96001.22;;;3.15;100.00
25722;BME280;13578;53.450;15.496;2023-12-22T01:04:47;96005.31;;;3.11;100.00
25722;BME280;13578;53.450;15.496;2023-12-22T01:07:48;96008.41;;;3.23;100.00
25722;BME280;13578;53.450;15.496;2023-12-22T01:10:49;95989.09;;;3.26;100.00
25722;BME280;13578;53.450;15.496;2023-12-22T01:13:49;96011.41;;;3.28;100.00
25722;BME280;13578;53.450;15.496;2023-12-22T01:16:50;96029.00;;;3.32;100.00
25722;BME280;13578;53.450;15.496;2023-12-22T01:19:51;96038.25;;;3.38;100.00
25722;BME280;13578;53.450;15.496;2023-12-22T01:22:51;96037.41;;;3.37;100.00
25722;BME280;13578;53.450;15.496;2023-12-22T01:25:52;96057.69;;;3.41;100.00
25722;BME280;13578;53.450;15.496;2023-12-22T01:28:53;96065.34;;;3.38;100.00
25722;BME280;13578;53.450;15.496;2023-12-22T01:31:53;96066.31;;;3.45;100.00
25722;BME280;13578;53.450;15.496;2023-12-22T01:34:54;96065.25;;;3.46;100.00
25722;BME280;13578;53.450;15.496;2023-12-22T01:37:54;96053.31;;;3.55;100.00
25722;BME280;13578;53.450;15.496;2023-12-22T01:40:57;96054.72;;;3.51;100.00
25722;BME280;13578;53.450;15.496;2023-12-22T01:43:57;96037.69;;;3.57;100.00
25722;BME280;13578;53.450;15.496;2023-12-22T01:46:58;96036.38;;;3.53;100.00
25722;BME280;13578;53.450;15.496;2023-12-22T01:50:00;96036.94;;;3.63;100.00
25722;BME280;13578;53.450;15.496;2023-12-22T01:53:00;96057.50;;;3.58;100.00
25722;BME280;13578;53.450;15.496;2023-12-22T01:56:02;96027.88;;;3.71;100.00
25722;BME280;13578;53.450;15.496;2023-12-22T01:59:03;96051.44;;;3.71;100.00
25722;BME280;13578;53.450;15.496;2023-12-22T02:02:04;96058.56;;;3.72;100.00
25722;BME280;13578;53.450;15.496;2023-12-22T02:05:05;96035.38;;;3.69;100.00
25722;BME280;13578;53.450;15.496;2023-12-22T02:08:06;96059.94;;;3.68;100.00
25722;BME280;13578;53.450;15.496;2023-12-22T02:11:07;96072.84;;;3.65;100.00
25722;BME280;13578;53.450;15.496;2023-12-22T02:14:08;96083.72;;;3.65;100.00
25722;BME280;13578;53.450;15.496;2023-12-22T02:17:17;96075.94;;;3.62;100.00
25722;BME280;13578;53.450;15.496;2023-12-22T02:36:42;96064.53;;;3.52;100.00
25722;BME280;13578;53.450;15.496;2023-12-22T02:39:44;96077.63;;;3.48;100.00
25722;BME280;13578;53.450;15.496;2023-12-22T02:42:45;96083.19;;;3.47;100.00
25722;BME280;13578;53.450;15.496;2023-12-22T02:45:50;96071.41;;;3.40;100.00
25722;BME280;13578;53.450;15.496;2023-12-22T02:48:51;96092.47;;;3.38;100.00
25722;BME280;13578;53.450;15.496;2023-12-22T02:51:51;96100.94;;;3.34;100.00
25722;BME280;13578;53.450;15.496;2023-12-22T02:54:52;96089.44;;;3.32;100.00
25722;BME280;13578;53.450;15.496;2023-12-22T02:57:53;96130.09;;;3.32;100.00
25722;BME280;13578;53.450;15.496;2023-12-22T03:00:53;96114.22;;;3.29;100.00
25722;BME280;13578;53.450;15.496;2023-12-22T03:03:54;96128.78;;;3.28;100.00
25722;BME280;13578;53.450;15.496;2023-12-22T03:06:54;96112.19;;;3.23;100.00
25722;BME280;13578;53.450;15.496;2023-12-22T03:09:55;96097.63;;;3.24;100.00
25722;BME280;13578;53.450;15.496;2023-12-22T03:12:56;96108.00;;;3.21;100.00
25722;BME280;13578;53.450;15.496;2023-12-22T03:15:56;96111.72;;;3.20;100.00
25722;BME280;13578;53.450;15.496;2023-12-22T03:18:57;96112.94;;;3.17;100.00
25722;BME280;13578;53.450;15.496;2023-12-22T03:21:58;96135.16;;;3.12;100.00
25722;BME280;13578;53.450;15.496;2023-12-22T03:24:59;96104.31;;;3.13;100.00
25722;BME280;13578;53.450;15.496;2023-12-22T03:28:00;96089.28;;;3.11;100.00
25722;BME280;13578;53.450;15.496;2023-12-22T03:31:00;96105.25;;;3.06;100.00
25722;BME280;13578;53.450;15.496;2023-12-22T03:34:01;96110.28;;;3.09;100.00
25722;BME280;13578;53.450;15.496;2023-12-22T03:37:02;96104.56;;;3.04;100.00
25722;BME280;13578;53.450;15.496;2023-12-22T03:40:03;96119.69;;;2.98;100.00
25722;BME280;13578;53.450;15.496;2023-12-22T03:43:05;96118.84;;;2.97;100.00
25722;BME280;13578;53.450;15.496;2023-12-22T03:46:06;96124.25;;;2.97;100.00
25722;BME280;13578;53.450;15.496;2023-12-22T03:49:07;96126.31;;;2.95;100.00
25722;BME280;13578;53.450;15.496;2023-12-22T03:52:07;96140.53;;;2.97;100.00
25722;BME280;13578;53.450;15.496;2023-12-22T03:55:08;96117.16;;;2.96;100.00
25722;BME280;13578;53.450;15.496;2023-12-22T03:58:09;96137.63;;;2.99;100.00
25722;BME280;13578;53.450;15.496;2023-12-22T04:01:14;96134.63;;;2.94;100.00
25722;BME280;13578;53.450;15.496;2023-12-22T04:04:15;96132.44;;;2.89;100.00
25722;BME280;13578;53.450;15.496;2023-12-22T04:07:15;96130.41;;;2.91;100.00
25722;BME280;13578;53.450;15.496;2023-12-22T04:10:17;96146.34;;;2.86;100.00
25722;BME280;13578;53.450;15.496;2023-12-22T04:13:18;96137.75;;;2.82;100.00
25722;BME280;13578;53.450;15.496;2023-12-22T04:16:18;96148.03;;;2.87;100.00
25722;BME280;13578;53.450;15.496;2023-12-22T04:19:19;96141.09;;;2.84;100.00
25722;BME280;13578;53.450;15.496;2023-12-22T04:22:20;96158.56;;;2.82;100.00
25722;BME280;13578;53.450;15.496;2023-12-22T04:25:21;96146.34;;;2.86;100.00
25722;BME280;13578;53.450;15.496;2023-12-22T04:28:23;96162.22;;;2.89;100.00
25722;BME280;13578;53.450;15.496;2023-12-22T04:31:25;96134.00;;;2.83;100.00
25722;BME280;13578;53.450;15.496;2023-12-22T04:34:26;96145.50;;;2.85;100.00
25722;BME280;13578;53.450;15.496;2023-12-22T04:37:27;96151.09;;;2.84;100.00
25722;BME280;13578;53.450;15.496;2023-12-22T04:40:27;96151.22;;;2.91;100.00
25722;BME280;13578;53.450;15.496;2023-12-22T04:43:28;96134.56;;;2.79;100.00
25722;BME280;13578;53.450;15.496;2023-12-22T04:46:29;96124.03;;;2.84;100.00
25722;BME280;13578;53.450;15.496;2023-12-22T04:49:30;96124.63;;;2.94;100.00
25722;BME280;13578;53.450;15.496;2023-12-22T04:52:31;96117.69;;;2.92;100.00
25722;BME280;13578;53.450;15.496;2023-12-22T04:55:32;96116.56;;;2.86;100.00
25722;BME280;13578;53.450;15.496;2023-12-22T04:58:33;96105.38;;;2.89;100.00
25722;BME280;13578;53.450;15.496;2023-12-22T05:01:33;96122.47;;;2.90;100.00
25722;BME280;13578;53.450;15.496;2023-12-22T05:04:35;96101.97;;;2.87;100.00
25722;BME280;13578;53.450;15.496;2023-12-22T05:07:35;96090.94;;;2.97;100.00
25722;BME280;13578;53.450;15.496;2023-12-22T05:10:36;96095.94;;;2.85;100.00
25722;BME280;13578;53.450;15.496;2023-12-22T05:13:37;96103.91;;;2.78;100.00
25722;BME280;13578;53.450;15.496;2023-12-22T05:16:38;96086.34;;;2.74;100.00
25722;BME280;13578;53.450;15.496;2023-12-22T05:19:38;96074.28;;;2.85;100.00
25722;BME280;13578;53.450;15.496;2023-12-22T05:22:39;96069.00;;;2.83;100.00
25722;BME280;13578;53.450;15.496;2023-12-22T05:25:40;96099.47;;;2.85;100.00
25722;BME280;13578;53.450;15.496;2023-12-22T05:28:41;96146.66;;;2.68;100.00
25722;BME280;13578;53.450;15.496;2023-12-22T05:31:41;96145.50;;;2.22;100.00
25722;BME280;13578;53.450;15.496;2023-12-22T05:34:42;96130.34;;;2.05;100.00
25722;BME280;13578;53.450;15.496;2023-12-22T05:37:43;96125.91;;;2.12;100.00
25722;BME280;13578;53.450;15.496;2023-12-22T05:40:43;96139.25;;;2.14;100.00
25722;BME280;13578;53.450;15.496;2023-12-22T05:43:45;96130.41;;;2.28;100.00
25722;BME280;13578;53.450;15.496;2023-12-22T05:46:46;96095.19;;;2.36;100.00
25722;BME280;13578;53.450;15.496;2023-12-22T05:49:46;96095.34;;;2.43;100.00
25722;BME280;13578;53.450;15.496;2023-12-22T05:52:47;96097.28;;;2.58;100.00
25722;BME280;13578;53.450;15.496;2023-12-22T05:55:48;96095.78;;;2.55;100.00
25722;BME280;13578;53.450;15.496;2023-12-22T05:58:49;96099.69;;;2.52;100.00
25722;BME280;13578;53.450;15.496;2023-12-22T06:01:54;96089.25;;;2.41;100.00
25722;BME280;13578;53.450;15.496;2023-12-22T06:04:54;96125.63;;;2.38;100.00
25722;BME280;13578;53.450;15.496;2023-12-22T06:07:55;96137.72;;;2.19;100.00
25722;BME280;13578;53.450;15.496;2023-12-22T06:10:55;96145.72;;;2.13;100.00
25722;BME280;13578;53.450;15.496;2023-12-22T06:13:56;96118.19;;;2.01;100.00
25722;BME280;13578;53.450;15.496;2023-12-22T06:16:57;96123.25;;;1.96;100.00
25722;BME280;13578;53.450;15.496;2023-12-22T06:19:58;96125.84;;;1.89;100.00
25722;BME280;13578;53.450;15.496;2023-12-22T06:22:59;96105.75;;;1.75;100.00
25722;BME280;13578;53.450;15.496;2023-12-22T06:26:00;96116.06;;;1.71;100.00
25722;BME280;13578;53.450;15.496;2023-12-22T06:29:02;96118.97;;;1.53;100.00
25722;BME280;13578;53.450;15.496;2023-12-22T06:32:04;96128.47;;;1.49;100.00
25722;BME280;13578;53.450;15.496;2023-12-22T06:35:07;96137.06;;;1.36;100.00
25722;BME280;13578;53.450;15.496;2023-12-22T06:38:10;96133.38;;;1.04;100.00
25722;BME280;13578;53.450;15.496;2023-12-22T06:41:32;96152.59;;;0.85;100.00
25722;BME280;13578;53.450;15.496;2023-12-22T06:44:32;96145.94;;;0.62;100.00
25722;BME280;13578;53.450;15.496;2023-12-22T06:47:33;96121.16;;;0.51;100.00
25722;BME280;13578;53.450;15.496;2023-12-22T06:50:34;96129.91;;;0.44;100.00
25722;BME280;13578;53.450;15.496;2023-12-22T06:53:36;96136.84;;;0.47;100.00
25722;BME280;13578;53.450;15.496;2023-12-22T06:56:37;96120.81;;;0.54;100.00
25722;BME280;13578;53.450;15.496;2023-12-22T06:59:38;96110.53;;;0.57;100.00
25722;BME280;13578;53.450;15.496;2023-12-22T07:02:39;96098.25;;;0.63;100.00
25722;BME280;13578;53.450;15.496;2023-12-22T07:05:40;96079.00;;;0.74;100.00
25722;BME280;13578;53.450;15.496;2023-12-22T07:08:41;96117.69;;;0.91;100.00
25722;BME280;13578;53.450;15.496;2023-12-22T07:11:45;96158.84;;;0.93;100.00
25722;BME280;13578;53.450;15.496;2023-12-22T07:14:46;96155.31;;;1.01;100.00
25722;BME280;13578;53.450;15.496;2023-12-22T07:17:47;96148.22;;;1.00;100.00
25722;BME280;13578;53.450;15.496;2023-12-22T07:34:49;96166.00;;;0.52;100.00
25722;BME280;13578;53.450;15.496;2023-12-22T07:37:50;96170.03;;;0.47;100.00
25722;BME280;13578;53.450;15.496;2023-12-22T07:40:50;96172.41;;;0.42;100.00
25722;BME280;13578;53.450;15.496;2023-12-22T07:43:51;96164.63;;;0.39;100.00
25722;BME280;13578;53.450;15.496;2023-12-22T07:46:59;96155.03;;;0.45;100.00
25722;BME280;13578;53.450;15.496;2023-12-22T07:50:00;96149.66;;;0.53;100.00
25722;BME280;13578;53.450;15.496;2023-12-22T07:53:00;96153.91;;;0.64;100.00
25722;BME280;13578;53.450;15.496;2023-12-22T07:56:01;96135.03;;;0.72;100.00
25722;BME280;13578;53.450;15.496;2023-12-22T07:59:02;96166.78;;;0.87;100.00
25722;BME280;13578;53.450;15.496;2023-12-22T08:02:03;96162.72;;;0.99;100.00
25722;BME280;13578;53.450;15.496;2023-12-22T08:05:04;96157.84;;;1.03;100.00
25722;BME280;13578;53.450;15.496;2023-12-22T08:08:05;96140.78;;;1.19;100.00
25722;BME280;13578;53.450;15.496;2023-12-22T08:11:06;96155.81;;;1.21;100.00
25722;BME280;13578;53.450;15.496;2023-12-22T08:14:08;96153.09;;;1.21;100.00
25722;BME280;13578;53.450;15.496;2023-12-22T08:17:09;96157.88;;;1.36;100.00
25722;BME280;13578;53.450;15.496;2023-12-22T08:20:10;96159.19;;;1.40;100.00
25722;BME280;13578;53.450;15.496;2023-12-22T08:23:11;96172.38;;;1.43;100.00
25722;BME280;13578;53.450;15.496;2023-12-22T08:26:12;96170.84;;;1.40;100.00
25722;BME280;13578;53.450;15.496;2023-12-22T08:29:14;96170.19;;;1.38;100.00
25722;BME280;13578;53.450;15.496;2023-12-22T08:32:16;96159.53;;;1.37;100.00
25722;BME280;13578;53.450;15.496;2023-12-22T08:35:16;96164.78;;;1.38;100.00
25722;BME280;13578;53.450;15.496;2023-12-22T08:38:17;96174.91;;;1.53;100.00
25722;BME280;13578;53.450;15.496;2023-12-22T08:41:18;96164.59;;;1.56;100.00
25722;BME280;13578;53.450;15.496;2023-12-22T08:44:19;96165.59;;;1.64;100.00
25722;BME280;13578;53.450;15.496;2023-12-22T08:47:19;96167.63;;;1.62;100.00
25722;BME280;13578;53.450;15.496;2023-12-22T08:50:20;96181.13;;;1.53;100.00
25722;BME280;13578;53.450;15.496;2023-12-22T08:53:21;96160.03;;;1.49;100.00
25722;BME280;13578;53.450;15.496;2023-12-22T08:56:22;96153.28;;;1.36;100.00
25722;BME280;13578;53.450;15.496;2023-12-22T08:59:23;96178.78;;;1.25;100.00
25722;BME280;13578;53.450;15.496;2023-12-22T09:02:23;96180.28;;;1.20;100.00
25722;BME280;13578;53.450;15.496;2023-12-22T09:05:24;96171.84;;;1.15;100.00
25722;BME280;13578;53.450;15.496;2023-12-22T09:08:25;96180.47;;;1.18;100.00
25722;BME280;13578;53.450;15.496;2023-12-22T09:11:26;96180.47;;;1.18;100.00
25722;BME280;13578;53.450;15.496;2023-12-22T09:14:27;96207.44;;;1.02;100.00
25722;BME280;13578;53.450;15.496;2023-12-22T09:17:28;96202.88;;;0.86;100.00
25722;BME280;13578;53.450;15.496;2023-12-22T09:20:29;96222.09;;;0.83;100.00
25722;BME280;13578;53.450;15.496;2023-12-22T09:23:30;96211.81;;;0.86;100.00
25722;BME280;13578;53.450;15.496;2023-12-22T09:26:31;96222.78;;;0.85;100.00
25722;BME280;13578;53.450;15.496;2023-12-22T09:29:33;96225.78;;;0.82;100.00
25722;BME280;13578;53.450;15.496;2023-12-22T09:32:35;96230.81;;;0.68;100.00
25722;BME280;13578;53.450;15.496;2023-12-22T09:35:36;96229.44;;;0.56;100.00
25722;BME280;13578;53.450;15.496;2023-12-22T09:38:37;96214.94;;;0.57;100.00
25722;BME280;13578;53.450;15.496;2023-12-22T09:41:37;96226.59;;;0.66;100.00
25722;BME280;13578;53.450;15.496;2023-12-22T09:44:38;96243.66;;;0.66;100.00
25722;BME280;13578;53.450;15.496;2023-12-22T09:47:44;96250.66;;;0.59;100.00
25722;BME280;13578;53.450;15.496;2023-12-22T09:50:45;96228.75;;;0.54;100.00
25722;BME280;13578;53.450;15.496;2023-12-22T09:53:47;96243.59;;;0.58;100.00
25722;BME280;13578;53.450;15.496;2023-12-22T09:56:50;96232.84;;;0.66;100.00
25722;BME280;13578;53.450;15.496;2023-12-22T09:59:51;96230.50;;;0.71;100.00
25722;BME280;13578;53.450;15.496;2023-12-22T10:02:52;96234.06;;;0.80;100.00
25722;BME280;13578;53.450;15.496;2023-12-22T10:05:53;96239.66;;;0.87;100.00
25722;BME280;13578;53.450;15.496;2023-12-22T10:08:54;96243.38;;;0.94;100.00
25722;BME280;13578;53.450;15.496;2023-12-22T10:11:56;96238.81;;;0.94;100.00
25722;BME280;13578;53.450;15.496;2023-12-22T10:14:59;96245.59;;;1.07;100.00
25722;BME280;13578;53.450;15.496;2023-12-22T10:18:00;96237.84;;;1.12;100.00
25722;BME280;13578;53.450;15.496;2023-12-22T10:21:01;96253.56;;;1.17;100.00
25722;BME280;13578;53.450;15.496;2023-12-22T10:24:02;96262.84;;;1.22;100.00
25722;BME280;13578;53.450;15.496;2023-12-22T10:27:03;96260.66;;;1.26;100.00
25722;BME280;13578;53.450;15.496;2023-12-22T10:30:04;96256.75;;;1.29;100.00
25722;BME280;13578;53.450;15.496;2023-12-22T10:33:06;96266.41;;;1.31;100.00
25722;BME280;13578;53.450;15.496;2023-12-22T10:36:07;96287.00;;;1.40;100.00
25722;BME280;13578;53.450;15.496;2023-12-22T10:39:08;96297.16;;;1.38;100.00
25722;BME280;13578;53.450;15.496;2023-12-22T10:42:09;96297.19;;;1.47;100.00
25722;BME280;13578;53.450;15.496;2023-12-22T10:45:10;96301.22;;;1.51;100.00
25722;BME280;13578;53.450;15.496;2023-12-22T10:48:11;96294.13;;;1.50;100.00
25722;BME280;13578;53.450;15.496;2023-12-22T10:51:11;96294.81;;;1.52;100.00
25722;BME280;13578;53.450;15.496;2023-12-22T10:54:12;96307.97;;;1.55;100.00
25722;BME280;13578;53.450;15.496;2023-12-22T10:57:13;96306.63;;;1.51;100.00
25722;BME280;13578;53.450;15.496;2023-12-22T11:00:17;96312.19;;;1.49;100.00
25722;BME280;13578;53.450;15.496;2023-12-22T11:03:23;96329.75;;;1.45;100.00
25722;BME280;13578;53.450;15.496;2023-12-22T11:06:27;96333.97;;;1.39;100.00
25722;BME280;13578;53.450;15.496;2023-12-22T11:09:31;96305.59;;;1.35;100.00
25722;BME280;13578;53.450;15.496;2023-12-22T11:12:37;96339.22;;;1.41;100.00
25722;BME280;13578;53.450;15.496;2023-12-22T11:15:39;96336.00;;;1.46;100.00
25722;BME280;13578;53.450;15.496;2023-12-22T11:18:40;96336.00;;;1.62;100.00
25722;BME280;13578;53.450;15.496;2023-12-22T11:21:42;96344.16;;;1.79;100.00
25722;BME280;13578;53.450;15.496;2023-12-22T11:24:46;96360.72;;;1.92;100.00
25722;BME280;13578;53.450;15.496;2023-12-22T11:27:48;96366.50;;;2.05;100.00
25722;BME280;13578;53.450;15.496;2023-12-22T11:30:54;96364.94;;;2.11;100.00
25722;BME280;13578;53.450;15.496;2023-12-22T11:33:55;96373.25;;;2.26;100.00
25722;BME280;13578;53.450;15.496;2023-12-22T11:37:00;96376.28;;;2.31;100.00
25722;BME280;13578;53.450;15.496;2023-12-22T11:40:03;96391.50;;;2.41;100.00
25722;BME280;13578;53.450;15.496;2023-12-22T11:43:05;96378.97;;;2.48;100.00
25722;BME280;13578;53.450;15.496;2023-12-22T11:46:08;96384.41;;;2.48;100.00
25722;BME280;13578;53.450;15.496;2023-12-22T11:49:09;96382.00;;;2.53;100.00
25722;BME280;13578;53.450;15.496;2023-12-22T11:52:13;96388.94;;;2.64;100.00
25722;BME280;13578;53.450;15.496;2023-12-22T11:55:14;96394.84;;;2.67;100.00
25722;BME280;13578;53.450;15.496;2023-12-22T11:58:42;96383.00;;;2.68;100.00
25722;BME280;13578;53.450;15.496;2023-12-22T12:01:42;96410.75;;;2.70;100.00
25722;BME280;13578;53.450;15.496;2023-12-22T12:04:43;96396.22;;;2.72;100.00
25722;BME280;13578;53.450;15.496;2023-12-22T12:07:48;96413.78;;;2.76;100.00
25722;BME280;13578;53.450;15.496;2023-12-22T12:10:52;96417.50;;;2.75;100.00
25722;BME280;13578;53.450;15.496;2023-12-22T12:13:54;96424.63;;;2.76;100.00
25722;BME280;13578;53.450;15.496;2023-12-22T12:17:07;96433.94;;;2.81;100.00
25722;BME280;13578;53.450;15.496;2023-12-22T12:20:11;96434.94;;;2.80;100.00
25722;BME280;13578;53.450;15.496;2023-12-22T12:23:12;96435.75;;;2.89;100.00
25722;BME280;13578;53.450;15.496;2023-12-22T12:26:13;96434.75;;;2.90;100.00
25722;BME280;13578;53.450;15.496;2023-12-22T12:29:14;96422.22;;;2.89;100.00
25722;BME280;13578;53.450;15.496;2023-12-22T12:32:16;96457.09;;;2.92;100.00
25722;BME280;13578;53.450;15.496;2023-12-22T12:35:18;96460.47;;;2.94;100.00
25722;BME280;13578;53.450;15.496;2023-12-22T12:38:21;96452.69;;;2.99;100.00
25722;BME280;13578;53.450;15.496;2023-12-22T12:41:30;96460.81;;;2.91;100.00
25722;BME280;13578;53.450;15.496;2023-12-22T12:44:33;96457.78;;;2.86;100.00
25722;BME280;13578;53.450;15.496;2023-12-22T12:47:34;96462.53;;;2.92;100.00
25722;BME280;13578;53.450;15.496;2023-12-22T12:50:34;96460.50;;;2.86;100.00
25722;BME280;13578;53.450;15.496;2023-12-22T12:53:36;96476.38;;;2.89;100.00
25722;BME280;13578;53.450;15.496;2023-12-22T12:56:42;96480.78;;;2.90;100.00
25722;BME280;13578;53.450;15.496;2023-12-22T12:59:47;96470.97;;;2.89;100.00
25722;BME280;13578;53.450;15.496;2023-12-22T13:02:48;96482.00;;;2.88;100.00
25722;BME280;13578;53.450;15.496;2023-12-22T13:05:48;96514.47;;;2.88;100.00
25722;BME280;13578;53.450;15.496;2023-12-22T13:08:52;96502.13;;;2.85;100.00
25722;BME280;13578;53.450;15.496;2023-12-22T13:11:53;96507.03;;;2.90;100.00
25722;BME280;13578;53.450;15.496;2023-12-22T13:14:54;96513.97;;;2.92;100.00
25722;BME280;13578;53.450;15.496;2023-12-22T13:17:55;96514.31;;;2.89;100.00
25722;BME280;13578;53.450;15.496;2023-12-22T13:20:56;96491.13;;;2.86;100.00
25722;BME280;13578;53.450;15.496;2023-12-22T13:24:12;96509.41;;;2.93;100.00
25722;BME280;13578;53.450;15.496;2023-12-22T13:27:13;96515.50;;;2.86;100.00
25722;BME280;13578;53.450;15.496;2023-12-22T13:30:35;96513.63;;;2.87;100.00
25722;BME280;13578;53.450;15.496;2023-12-22T13:33:36;96524.31;;;2.80;100.00
25722;BME280;13578;53.450;15.496;2023-12-22T13:36:38;96527.34;;;2.85;100.00
25722;BME280;13578;53.450;15.496;2023-12-22T13:39:39;96513.66;;;2.79;100.00
25722;BME280;13578;53.450;15.496;2023-12-22T13:42:39;96550.00;;;2.76;100.00
25722;BME280;13578;53.450;15.496;2023-12-22T13:45:41;96532.94;;;2.76;100.00
25722;BME280;13578;53.450;15.496;2023-12-22T13:48:43;96533.59;;;2.69;100.00
25722;BME280;13578;53.450;15.496;2023-12-22T13:51:45;96532.09;;;2.75;100.00
25722;BME280;13578;53.450;15.496;2023-12-22T13:54:48;96541.56;;;2.71;100.00
25722;BME280;13578;53.450;15.496;2023-12-22T13:57:48;96546.28;;;2.69;100.00
25722;BME280;13578;53.450;15.496;2023-12-22T14:00:50;96546.47;;;2.67;100.00
25722;BME280;13578;53.450;15.496;2023-12-22T14:03:50;96553.56;;;2.68;100.00
25722;BME280;13578;53.450;15.496;2023-12-22T14:06:51;96550.34;;;2.65;100.00
25722;BME280;13578;53.450;15.496;2023-12-22T14:09:52;96571.19;;;2.64;100.00
25722;BME280;13578;53.450;15.496;2023-12-22T14:12:52;96538.50;;;2.66;100.00
25722;BME280;13578;53.450;15.496;2023-12-22T14:15:53;96537.00;;;2.72;100.00
25722;BME280;13578;53.450;15.496;2023-12-22T14:18:53;96535.63;;;2.67;100.00
25722;BME280;13578;53.450;15.496;2023-12-22T14:21:55;96563.38;;;2.61;100.00
25722;BME280;13578;53.450;15.496;2023-12-22T14:24:55;96561.38;;;2.63;100.00
25722;BME280;13578;53.450;15.496;2023-12-22T14:27:56;96580.63;;;2.60;100.00
25722;BME280;13578;53.450;15.496;2023-12-22T14:30:57;96563.38;;;2.53;100.00
25722;BME280;13578;53.450;15.496;2023-12-22T14:33:58;96571.31;;;2.54;100.00
25722;BME280;13578;53.450;15.496;2023-12-22T14:36:58;96577.72;;;2.53;100.00
25722;BME280;13578;53.450;15.496;2023-12-22T14:40:00;96584.19;;;2.52;100.00
25722;BME280;13578;53.450;15.496;2023-12-22T14:43:00;96578.09;;;2.50;100.00
25722;BME280;13578;53.450;15.496;2023-12-22T14:46:02;96574.03;;;2.54;100.00
25722;BME280;13578;53.450;15.496;2023-12-22T14:49:03;96575.38;;;2.50;100.00
25722;BME280;13578;53.450;15.496;2023-12-22T14:52:03;96610.06;;;2.55;100.00
25722;BME280;13578;53.450;15.496;2023-12-22T14:55:04;96599.56;;;2.52;100.00
25722;BME280;13578;53.450;15.496;2023-12-22T14:58:05;96610.38;;;2.52;100.00
25722;BME280;13578;53.450;15.496;2023-12-22T15:01:12;96607.69;;;2.52;100.00
25722;BME280;13578;53.450;15.496;2023-12-22T15:04:13;96622.22;;;2.51;100.00
25722;BME280;13578;53.450;15.496;2023-12-22T15:07:18;96634.75;;;2.52;100.00
25722;BME280;13578;53.450;15.496;2023-12-22T15:10:19;96643.38;;;2.56;100.00
25722;BME280;13578;53.450;15.496;2023-12-22T15:13:20;96647.59;;;2.50;100.00
25722;BME280;13578;53.450;15.496;2023-12-22T15:16:20;96645.56;;;2.52;100.00
25722;BME280;13578;53.450;15.496;2023-12-22T15:19:21;96647.25;;;2.45;100.00
25722;BME280;13578;53.450;15.496;2023-12-22T15:22:21;96644.53;;;2.45;100.00
25722;BME280;13578;53.450;15.496;2023-12-22T15:25:22;96646.94;;;2.48;100.00
25722;BME280;13578;53.450;15.496;2023-12-22T15:28:23;96664.19;;;2.47;100.00
25722;BME280;13578;53.450;15.496;2023-12-22T15:31:24;96657.38;;;2.43;100.00
25722;BME280;13578;53.450;15.496;2023-12-22T15:34:25;96642.84;;;2.44;100.00
25722;BME280;13578;53.450;15.496;2023-12-22T15:37:26;96660.59;;;2.46;100.00
25722;BME280;13578;53.450;15.496;2023-12-22T15:40:26;96657.56;;;2.41;100.00
25722;BME280;13578;53.450;15.496;2023-12-22T15:43:28;96669.75;;;2.37;100.00
25722;BME280;13578;53.450;15.496;2023-12-22T15:46:28;96661.63;;;2.37;100.00
25722;BME280;13578;53.450;15.496;2023-12-22T15:49:29;96667.50;;;2.32;100.00
25722;BME280;13578;53.450;15.496;2023-12-22T15:52:30;96680.03;;;2.33;100.00
25722;BME280;13578;53.450;15.496;2023-12-22T15:55:31;96651.59;;;2.29;100.00
25722;BME280;13578;53.450;15.496;2023-12-22T15:58:32;96669.22;;;2.33;100.00
25722;BME280;13578;53.450;15.496;2023-12-22T16:01:33;96675.28;;;2.27;100.00
25722;BME280;13578;53.450;15.496;2023-12-22T16:04:33;96664.25;;;2.20;100.00
25722;BME280;13578;53.450;15.496;2023-12-22T16:07:34;96654.59;;;2.18;100.00
25722;BME280;13578;53.450;15.496;2023-12-22T16:10:34;96676.25;;;2.18;100.00
25722;BME280;13578;53.450;15.496;2023-12-22T16:13:35;96656.78;;;2.14;100.00
25722;BME280;13578;53.450;15.496;2023-12-22T16:16:35;96671.00;;;2.16;100.00
25722;BME280;13578;53.450;15.496;2023-12-22T16:19:39;96674.03;;;2.13;100.00
25722;BME280;13578;53.450;15.496;2023-12-22T16:22:41;96676.91;;;2.12;100.00
25722;BME280;13578;53.450;15.496;2023-12-22T16:25:41;96688.91;;;2.17;100.00
25722;BME280;13578;53.450;15.496;2023-12-22T16:28:42;96674.03;;;2.13;100.00
25722;BME280;13578;53.450;15.496;2023-12-22T16:31:42;96669.50;;;2.22;100.00